createdAt,value
2023-03-18T00:00:15.562Z,2.40
2023-03-18T00:03:03.263Z,2.40
2023-03-18T00:05:31.264Z,2.30
2023-03-18T00:07:58.459Z,2.30
2023-03-18T00:10:26.386Z,2.30
2023-03-18T00:12:53.648Z,2.20
2023-03-18T00:15:21.238Z,2.40
2023-03-18T00:17:51.386Z,2.20
2023-03-18T00:20:28.939Z,2.10
2023-03-18T00:22:57.588Z,2.10
2023-03-18T00:25:26.506Z,2.30
2023-03-18T00:27:53.472Z,2.00
2023-03-18T00:30:20.854Z,2.00
2023-03-18T00:32:49.086Z,2.00
2023-03-18T00:35:18.050Z,1.90
2023-03-18T00:37:45.268Z,1.90
2023-03-18T00:40:17.506Z,1.90
2023-03-18T00:42:47.701Z,1.90
2023-03-18T00:45:17.513Z,1.90
2023-03-18T00:47:44.942Z,1.90
2023-03-18T00:50:12.490Z,1.80
2023-03-18T00:52:39.712Z,1.90
2023-03-18T00:55:08.338Z,1.80
2023-03-18T00:57:35.477Z,1.80
2023-03-18T01:00:04.755Z,1.80
2023-03-18T01:02:32.162Z,1.80
2023-03-18T01:04:59.423Z,1.80
2023-03-18T01:07:27.086Z,1.80
2023-03-18T01:09:54.880Z,1.80
2023-03-18T01:12:22.773Z,1.80
2023-03-18T01:14:50.178Z,1.80
2023-03-18T01:17:17.356Z,1.90
2023-03-18T01:19:44.781Z,1.80
2023-03-18T01:22:11.830Z,1.80
2023-03-18T01:24:39.520Z,1.70
2023-03-18T01:27:07.676Z,1.70
2023-03-18T01:29:36.288Z,1.70
2023-03-18T01:32:03.846Z,1.70
2023-03-18T01:34:31.464Z,1.70
2023-03-18T01:36:58.931Z,1.70
2023-03-18T01:41:53.845Z,1.70
2023-03-18T01:44:23.466Z,1.70
2023-03-18T01:46:52.826Z,1.70
2023-03-18T01:49:35.385Z,1.70
2023-03-18T01:52:11.621Z,1.70
2023-03-18T01:54:44.517Z,1.70
2023-03-18T01:57:12.771Z,1.70
2023-03-18T01:59:42.252Z,1.70
2023-03-18T02:02:13.007Z,1.60
2023-03-18T02:04:44.501Z,1.60
2023-03-18T02:07:20.478Z,1.60
2023-03-18T02:09:49.937Z,1.60
2023-03-18T02:12:22.714Z,1.60
2023-03-18T02:14:50.849Z,1.60
2023-03-18T02:17:22.614Z,1.60
2023-03-18T02:20:01.272Z,1.60
2023-03-18T02:22:31.162Z,1.50
2023-03-18T02:25:26.156Z,1.50
2023-03-18T02:28:01.344Z,1.50
2023-03-18T02:30:34.452Z,1.40
2023-03-18T02:33:02.291Z,1.40
2023-03-18T02:35:31.551Z,1.30
2023-03-18T02:37:58.912Z,1.30
2023-03-18T02:40:28.486Z,1.30
2023-03-18T02:42:55.885Z,1.20
2023-03-18T02:45:43.610Z,1.20
2023-03-18T02:48:15.223Z,1.20
2023-03-18T02:50:43.076Z,1.20
2023-03-18T02:53:12.851Z,1.10
2023-03-18T02:55:40.636Z,1.10
2023-03-18T02:58:08.068Z,1.00
2023-03-18T03:00:36.514Z,1.10
2023-03-18T03:03:04.154Z,1.10
2023-03-18T03:05:34.158Z,1.10
2023-03-18T03:08:01.172Z,1.10
2023-03-18T03:10:29.091Z,1.10
2023-03-18T03:12:56.945Z,1.10
2023-03-18T03:15:25.033Z,1.00
2023-03-18T03:17:52.350Z,1.00
2023-03-18T03:20:20.218Z,1.00
2023-03-18T03:22:47.393Z,1.00
2023-03-18T03:25:15.155Z,0.90
2023-03-18T03:27:43.685Z,0.90
2023-03-18T03:30:13.651Z,0.90
2023-03-18T03:32:41.246Z,0.90
2023-03-18T03:35:11.957Z,0.80
2023-03-18T03:37:38.919Z,0.80
2023-03-18T03:40:06.808Z,0.80
2023-03-18T03:42:33.836Z,0.70
2023-03-18T03:45:01.195Z,0.70
2023-03-18T03:47:28.192Z,0.70
2023-03-18T03:49:56.321Z,0.70
2023-03-18T03:52:23.503Z,0.60
2023-03-18T03:54:51.095Z,0.60
2023-03-18T03:57:19.066Z,0.60
2023-03-18T03:59:46.449Z,0.50
2023-03-18T04:02:13.841Z,0.60
2023-03-18T04:04:41.172Z,0.60
2023-03-18T04:07:08.387Z,0.60
2023-03-18T04:09:36.499Z,0.60
2023-03-18T04:12:03.884Z,0.60
2023-03-18T04:14:31.699Z,0.60
2023-03-18T04:17:00.470Z,0.60
2023-03-18T04:19:29.022Z,0.60
2023-03-18T04:21:56.818Z,0.50
2023-03-18T04:24:24.327Z,0.60
2023-03-18T04:26:51.364Z,0.60
2023-03-18T04:29:18.779Z,0.50
2023-03-18T04:31:45.760Z,0.60
2023-03-18T04:34:13.683Z,0.60
2023-03-18T04:36:40.840Z,0.60
2023-03-18T04:39:09.659Z,0.50
2023-03-18T04:41:37.676Z,0.60
2023-03-18T04:44:05.172Z,0.60
2023-03-18T04:46:32.795Z,0.50
2023-03-18T04:49:00.108Z,0.50
2023-03-18T04:51:27.547Z,0.50
2023-03-18T04:53:54.833Z,0.50
2023-03-18T04:56:22.091Z,0.50
2023-03-18T04:58:49.986Z,0.50
2023-03-18T05:01:17.291Z,0.50
2023-03-18T05:03:44.845Z,0.50
2023-03-18T05:06:25.299Z,0.60
2023-03-18T05:08:52.918Z,0.60
2023-03-18T05:11:20.820Z,0.70
2023-03-18T05:13:48.506Z,0.70
2023-03-18T05:16:15.709Z,0.80
2023-03-18T05:18:44.715Z,0.80
2023-03-18T05:21:11.898Z,0.90
2023-03-18T05:23:39.606Z,0.90
2023-03-18T05:26:06.721Z,1.00
2023-03-18T05:28:34.468Z,1.00
2023-03-18T05:31:01.707Z,1.00
2023-03-18T05:33:29.678Z,1.10
2023-03-18T05:35:57.023Z,1.10
2023-03-18T05:38:25.256Z,1.20
2023-03-18T05:40:52.434Z,1.30
2023-03-18T05:43:20.237Z,1.40
2023-03-18T05:45:47.458Z,1.60
2023-03-18T05:48:15.415Z,1.70
2023-03-18T05:50:43.372Z,2.10
2023-03-18T05:53:11.806Z,2.40
2023-03-18T05:55:40.545Z,2.60
2023-03-18T05:58:08.274Z,2.70
2023-03-18T06:00:36.074Z,2.80
2023-03-18T06:03:03.552Z,2.80
2023-03-18T06:05:31.304Z,2.70
2023-03-18T06:07:59.541Z,2.70
2023-03-18T06:10:26.873Z,2.70
2023-03-18T06:12:55.816Z,2.80
2023-03-18T06:15:24.402Z,2.90
2023-03-18T06:17:52.794Z,2.90
2023-03-18T06:20:20.247Z,3.00
2023-03-18T06:22:51.668Z,3.00
2023-03-18T06:25:20.941Z,3.00
2023-03-18T06:27:49.170Z,3.10
2023-03-18T06:30:17.313Z,3.20
2023-03-18T06:32:44.844Z,3.20
2023-03-18T06:35:12.449Z,3.30
2023-03-18T06:37:40.199Z,3.40
2023-03-18T06:40:09.604Z,3.50
2023-03-18T06:42:38.012Z,3.50
2023-03-18T06:45:05.666Z,3.50
2023-03-18T06:47:33.121Z,3.60
2023-03-18T06:50:00.296Z,3.80
2023-03-18T06:52:28.389Z,3.90
2023-03-18T06:54:55.360Z,4.00
2023-03-18T06:57:23.110Z,4.00
2023-03-18T06:59:50.783Z,4.10
2023-03-18T07:02:18.164Z,4.10
2023-03-18T07:04:45.290Z,4.10
2023-03-18T07:07:13.360Z,4.10
2023-03-18T07:09:40.839Z,4.20
2023-03-18T07:12:08.424Z,4.20
2023-03-18T07:14:35.487Z,4.50
2023-03-18T07:17:03.926Z,4.50
2023-03-18T07:19:32.392Z,5.10
2023-03-18T07:22:00.639Z,5.10
2023-03-18T07:24:28.530Z,5.50
2023-03-18T07:26:57.162Z,5.50
2023-03-18T07:29:24.401Z,5.70
2023-03-18T07:31:51.720Z,5.80
2023-03-18T07:34:19.329Z,6.10
2023-03-18T07:36:47.447Z,6.50
2023-03-18T07:39:14.907Z,6.80
2023-03-18T07:41:42.760Z,7.10
2023-03-18T07:44:09.862Z,7.60
2023-03-18T07:46:37.309Z,8.20
2023-03-18T07:49:04.409Z,8.60
2023-03-18T07:51:32.735Z,9.20
2023-03-18T07:54:00.301Z,9.50
2023-03-18T07:56:27.717Z,9.70
2023-03-18T07:58:54.806Z,9.50
2023-03-18T08:01:22.481Z,9.50
2023-03-18T08:03:49.890Z,9.70
2023-03-18T08:06:19.612Z,9.50
2023-03-18T08:08:47.397Z,9.20
2023-03-18T08:11:15.401Z,8.90
2023-03-18T08:13:42.923Z,8.60
2023-03-18T08:16:10.689Z,8.60
2023-03-18T08:18:37.990Z,8.80
2023-03-18T08:21:06.197Z,9.20
2023-03-18T08:23:33.680Z,9.70
2023-03-18T08:26:01.564Z,10.00
2023-03-18T08:28:28.961Z,10.40
2023-03-18T08:30:57.849Z,10.80
2023-03-18T08:33:27.127Z,11.10
2023-03-18T08:35:56.259Z,11.00
2023-03-18T08:38:24.918Z,11.20
2023-03-18T08:40:52.733Z,11.60
2023-03-18T08:43:22.306Z,11.60
2023-03-18T08:45:54.251Z,11.90
2023-03-18T08:48:23.059Z,11.80
2023-03-18T08:50:51.079Z,12.40
2023-03-18T08:53:18.198Z,13.60
2023-03-18T08:55:46.718Z,13.90
2023-03-18T08:58:13.923Z,13.90
2023-03-18T09:00:42.992Z,14.10
2023-03-18T09:03:10.461Z,14.60
2023-03-18T09:05:38.634Z,14.60
2023-03-18T09:08:06.629Z,15.10
2023-03-18T09:10:35.893Z,15.10
2023-03-18T09:13:03.442Z,15.20
2023-03-18T09:15:32.474Z,15.10
2023-03-18T09:18:10.742Z,14.90
2023-03-18T09:20:40.406Z,14.90
2023-03-18T09:23:08.896Z,14.90
2023-03-18T09:25:36.595Z,15.20
2023-03-18T09:28:03.912Z,15.10
2023-03-18T09:30:32.586Z,14.80
2023-03-18T09:32:59.740Z,14.80
2023-03-18T09:35:29.210Z,14.80
2023-03-18T09:37:56.460Z,14.60
2023-03-18T09:40:33.406Z,14.60
2023-03-18T09:43:13.206Z,14.80
2023-03-18T09:46:18.798Z,14.80
2023-03-18T09:49:04.840Z,14.70
2023-03-18T09:51:48.556Z,15.00
2023-03-18T09:54:19.347Z,15.40
2023-03-18T09:56:48.141Z,15.60
2023-03-18T09:59:26.772Z,15.60
2023-03-18T10:01:57.569Z,15.50
2023-03-18T10:04:46.389Z,15.70
2023-03-18T10:07:17.802Z,15.60
2023-03-18T10:09:55.676Z,14.30
2023-03-18T10:12:38.998Z,14.10
2023-03-18T10:15:19.770Z,13.40
2023-03-18T10:18:03.078Z,13.00
2023-03-18T10:20:56.133Z,12.80
2023-03-18T10:23:42.049Z,12.80
2023-03-18T10:26:19.723Z,12.60
2023-03-18T10:29:00.717Z,12.50
2023-03-18T10:31:52.967Z,12.50
2023-03-18T10:34:31.281Z,12.50
2023-03-18T10:37:07.407Z,12.60
2023-03-18T10:39:37.118Z,12.70
2023-03-18T10:42:19.904Z,12.70
2023-03-18T10:44:47.724Z,12.70
2023-03-18T10:47:31.272Z,12.80
2023-03-18T10:50:13.991Z,13.00
2023-03-18T10:53:01.459Z,13.10
2023-03-18T10:55:38.243Z,13.30
2023-03-18T10:58:15.440Z,13.20
2023-03-18T11:00:44.490Z,13.20
2023-03-18T11:03:27.359Z,13.10
2023-03-18T11:05:59.200Z,13.10
2023-03-18T11:08:43.544Z,13.00
2023-03-18T11:11:27.481Z,13.00
2023-03-18T11:17:06.547Z,13.10
2023-03-18T11:19:39.738Z,13.10
2023-03-18T11:22:10.265Z,13.20
2023-03-18T11:24:45.029Z,13.20
2023-03-18T11:27:15.969Z,13.30
2023-03-18T11:29:49.803Z,13.30
2023-03-18T11:32:34.363Z,13.30
2023-03-18T11:35:04.996Z,13.30
2023-03-18T11:37:40.573Z,13.40
2023-03-18T11:40:14.255Z,13.50
2023-03-18T11:42:42.283Z,13.60
2023-03-18T11:45:34.944Z,13.40
2023-03-18T11:48:03.692Z,13.40
2023-03-18T11:50:45.040Z,13.40
2023-03-18T11:53:46.945Z,13.40
2023-03-18T11:56:20.174Z,13.40
2023-03-18T11:59:01.060Z,13.60
2023-03-18T12:02:11.224Z,13.60
2023-03-18T12:05:12.533Z,13.70
2023-03-18T12:08:01.578Z,13.70
2023-03-18T12:10:36.218Z,13.70
2023-03-18T12:13:15.589Z,13.60
2023-03-18T12:15:47.338Z,13.60
2023-03-18T12:18:27.219Z,13.70
2023-03-18T12:21:00.001Z,13.70
2023-03-18T12:23:50.050Z,13.60
2023-03-18T12:26:40.777Z,13.70
2023-03-18T12:29:38.635Z,13.70
2023-03-18T12:32:25.519Z,13.70
2023-03-18T12:35:10.625Z,13.80
2023-03-18T12:37:56.230Z,13.80
2023-03-18T12:40:24.237Z,13.70
2023-03-18T12:43:06.127Z,13.70
2023-03-18T12:45:39.519Z,13.60
2023-03-18T12:48:43.531Z,13.70
2023-03-18T12:51:21.567Z,13.70
2023-03-18T12:54:10.298Z,13.60
2023-03-18T12:56:45.174Z,13.60
2023-03-18T12:59:19.270Z,13.70
2023-03-18T13:01:57.511Z,13.70
2023-03-18T13:04:29.964Z,13.90
2023-03-18T13:07:16.033Z,13.80
2023-03-18T13:09:54.103Z,13.80
2023-03-18T13:12:30.496Z,13.70
2023-03-18T13:15:20.759Z,13.70
2023-03-18T13:17:52.316Z,13.60
2023-03-18T13:20:35.537Z,13.50
2023-03-18T13:23:26.061Z,13.50
2023-03-18T13:25:58.557Z,13.70
2023-03-18T13:28:45.347Z,13.70
2023-03-18T13:31:37.237Z,13.70
2023-03-18T13:34:12.038Z,13.60
2023-03-18T13:36:51.031Z,13.70
2023-03-18T13:39:42.809Z,13.90
2023-03-18T13:42:22.247Z,14.10
2023-03-18T13:44:58.820Z,14.10
2023-03-18T13:47:31.426Z,14.10
2023-03-18T13:50:20.612Z,14.00
2023-03-18T13:52:48.944Z,14.10
2023-03-18T13:55:27.715Z,14.00
2023-03-18T13:58:22.941Z,13.90
2023-03-18T14:00:56.826Z,13.80
2023-03-18T14:03:39.030Z,13.90
2023-03-18T14:06:10.005Z,13.80
2023-03-18T14:08:42.301Z,13.90
2023-03-18T14:11:23.179Z,13.90
2023-03-18T14:14:02.100Z,14.00
2023-03-18T14:16:37.928Z,13.90
2023-03-18T14:19:22.176Z,13.80
2023-03-18T14:21:53.905Z,13.80
2023-03-18T14:24:26.151Z,13.80
2023-03-18T14:27:04.406Z,13.80
2023-03-18T14:29:37.475Z,13.60
2023-03-18T14:32:27.036Z,13.50
2023-03-18T14:34:57.518Z,13.40
2023-03-18T14:38:09.176Z,13.30
2023-03-18T14:40:41.045Z,13.30
2023-03-18T14:43:25.657Z,13.20
2023-03-18T14:45:57.240Z,13.10
2023-03-18T14:48:29.498Z,13.10
2023-03-18T14:51:00.307Z,13.00
2023-03-18T14:53:48.651Z,13.00
2023-03-18T14:56:30.304Z,13.00
2023-03-18T14:58:58.460Z,13.00
2023-03-18T15:01:47.139Z,13.00
2023-03-18T15:04:19.579Z,13.00
2023-03-18T15:09:21.310Z,13.20
2023-03-18T15:11:49.002Z,13.30
2023-03-18T15:14:23.575Z,13.20
2023-03-18T15:16:54.968Z,13.20
2023-03-18T15:19:23.719Z,13.10
2023-03-18T15:21:51.696Z,13.00
2023-03-18T15:24:23.129Z,13.00
2023-03-18T15:27:05.711Z,12.80
2023-03-18T15:29:37.388Z,12.80
2023-03-18T15:32:42.654Z,12.70
2023-03-18T15:35:28.687Z,12.50
2023-03-18T15:38:16.670Z,12.50
2023-03-18T15:40:52.660Z,12.40
2023-03-18T15:43:30.595Z,12.30
2023-03-18T15:46:00.920Z,12.10
2023-03-18T15:48:36.782Z,12.10
2023-03-18T15:51:09.967Z,11.80
2023-03-18T15:53:44.635Z,11.70
2023-03-18T15:59:07.152Z,11.50
2023-03-18T16:01:35.328Z,11.30
2023-03-18T16:04:06.283Z,11.30
2023-03-18T16:06:35.148Z,11.10
2023-03-18T16:09:20.236Z,11.10
2023-03-18T16:11:54.773Z,10.90
2023-03-18T16:14:26.073Z,10.90
2023-03-18T16:16:53.544Z,10.70
2023-03-18T16:19:25.823Z,10.70
2023-03-18T16:21:53.528Z,10.50
2023-03-18T16:24:21.400Z,10.50
2023-03-18T16:26:50.173Z,10.30
2023-03-18T16:29:36.851Z,10.30
2023-03-18T16:32:04.830Z,10.10
2023-03-18T16:34:32.353Z,10.00
2023-03-18T16:37:00.190Z,9.80
2023-03-18T16:39:34.269Z,9.80
2023-03-18T16:42:03.191Z,9.70
2023-03-18T16:44:30.729Z,9.60
2023-03-18T16:46:58.495Z,9.50
2023-03-18T16:49:34.337Z,9.50
2023-03-18T16:52:04.484Z,9.30
2023-03-18T16:54:33.536Z,9.20
2023-03-18T16:57:04.356Z,9.10
2023-03-18T16:59:36.998Z,9.10
2023-03-18T17:02:06.021Z,8.90
2023-03-18T17:04:35.349Z,8.90
2023-03-18T17:07:04.772Z,8.70
2023-03-18T17:09:32.138Z,8.70
2023-03-18T17:12:05.383Z,8.50
2023-03-18T17:14:39.878Z,8.50
2023-03-18T17:17:17.215Z,8.40
2023-03-18T17:19:44.728Z,8.40
2023-03-18T17:22:24.534Z,8.30
2023-03-18T17:24:51.937Z,8.20
2023-03-18T17:27:25.633Z,8.20
2023-03-18T17:29:53.297Z,8.20
2023-03-18T17:32:22.415Z,8.10
2023-03-18T17:34:51.363Z,8.10
2023-03-18T17:37:20.506Z,8.10
2023-03-18T17:39:47.833Z,8.10
2023-03-18T17:42:33.072Z,8.10
2023-03-18T17:45:06.413Z,8.10
2023-03-18T17:47:33.878Z,8.10
2023-03-18T17:50:01.066Z,8.10
2023-03-18T17:52:28.431Z,8.10
2023-03-18T17:54:55.688Z,8.10
2023-03-18T17:57:22.985Z,8.10
2023-03-18T17:59:51.625Z,8.10
2023-03-18T18:02:20.312Z,8.00
2023-03-18T18:04:47.862Z,8.00
2023-03-18T18:07:21.854Z,7.90
2023-03-18T18:09:49.642Z,7.90
2023-03-18T18:12:22.076Z,7.80
2023-03-18T18:14:49.731Z,7.80
2023-03-18T18:17:17.416Z,7.70
2023-03-18T18:19:45.629Z,7.70
2023-03-18T18:22:22.224Z,7.70
2023-03-18T18:24:50.494Z,7.70
2023-03-18T18:27:18.789Z,7.60
2023-03-18T18:29:46.577Z,7.60
2023-03-18T18:32:15.517Z,7.30
2023-03-18T18:34:42.592Z,7.50
2023-03-18T18:37:10.024Z,7.30
2023-03-18T18:39:37.133Z,7.30
2023-03-18T18:42:04.740Z,7.20
2023-03-18T18:44:31.851Z,7.10
2023-03-18T18:47:00.046Z,7.10
2023-03-18T18:49:27.150Z,7.10
2023-03-18T18:51:56.176Z,7.00
2023-03-18T18:54:24.517Z,7.00
2023-03-18T18:56:52.476Z,6.90
2023-03-18T18:59:27.553Z,6.90
2023-03-18T19:01:55.588Z,6.90
2023-03-18T19:04:23.788Z,6.90
2023-03-18T19:06:52.519Z,6.90
2023-03-18T19:09:23.836Z,6.90
2023-03-18T19:11:52.339Z,6.90
2023-03-18T19:14:29.596Z,6.80
2023-03-18T19:16:59.315Z,6.70
2023-03-18T19:19:32.477Z,6.70
2023-03-18T19:22:00.463Z,6.60
2023-03-18T19:24:28.609Z,6.60
2023-03-18T19:27:02.115Z,6.60
2023-03-18T19:29:29.608Z,6.50
2023-03-18T19:31:57.138Z,6.50
2023-03-18T19:34:24.740Z,6.50
2023-03-18T19:36:55.300Z,6.50
2023-03-18T19:39:22.886Z,6.50
2023-03-18T19:41:51.333Z,6.50
2023-03-18T19:44:24.200Z,6.60
2023-03-18T19:46:54.772Z,6.60
2023-03-18T19:49:35.726Z,6.60
2023-03-18T19:52:18.009Z,6.70
2023-03-18T19:54:46.331Z,6.60
2023-03-18T19:57:20.672Z,6.60
2023-03-18T19:59:49.393Z,6.60
2023-03-18T20:02:33.995Z,6.60
2023-03-18T20:05:03.841Z,6.60
2023-03-18T20:07:32.780Z,6.60
2023-03-18T20:10:00.150Z,6.50
2023-03-18T20:12:39.322Z,6.50
2023-03-18T20:15:12.546Z,6.50
2023-03-18T20:17:45.042Z,6.60
2023-03-18T20:20:19.785Z,6.60
2023-03-18T20:22:54.161Z,6.50
2023-03-18T20:25:30.007Z,6.50
2023-03-18T20:27:58.274Z,6.50
2023-03-18T20:30:37.371Z,6.50
2023-03-18T20:33:05.850Z,6.40
2023-03-18T20:35:41.767Z,6.40
2023-03-18T20:38:34.004Z,6.30
2023-03-18T20:41:01.837Z,6.30
2023-03-18T20:43:29.977Z,6.30
2023-03-18T20:45:59.361Z,6.30
2023-03-18T20:48:27.872Z,6.20
2023-03-18T20:50:56.214Z,6.20
2023-03-18T20:53:26.227Z,6.20
2023-03-18T20:55:53.379Z,6.20
2023-03-18T20:58:23.310Z,6.10
2023-03-18T21:00:52.374Z,6.10
2023-03-18T21:03:29.438Z,6.10
2023-03-18T21:05:58.786Z,6.00
2023-03-18T21:08:27.792Z,6.00
2023-03-18T21:10:56.241Z,5.90
2023-03-18T21:13:28.381Z,5.90
2023-03-18T21:15:56.549Z,5.90
2023-03-18T21:18:26.144Z,5.80
2023-03-18T21:20:54.340Z,5.80
2023-03-18T21:23:34.108Z,5.80
2023-03-18T21:26:02.020Z,5.70
2023-03-18T21:28:30.620Z,5.70
2023-03-18T21:30:58.731Z,5.70
2023-03-18T21:33:29.709Z,5.60
2023-03-18T21:35:57.861Z,5.60
2023-03-18T21:38:28.385Z,5.50
2023-03-18T21:40:56.639Z,5.50
2023-03-18T21:43:33.377Z,5.50
2023-03-18T21:46:02.648Z,5.50
2023-03-18T21:48:30.319Z,5.40
2023-03-18T21:50:58.228Z,5.30
2023-03-18T21:53:27.489Z,5.30
2023-03-18T21:55:55.017Z,5.20
2023-03-18T21:58:24.941Z,5.20
2023-03-18T22:00:54.715Z,5.10
2023-03-18T22:03:23.722Z,5.00
2023-03-18T22:05:52.322Z,5.00
2023-03-18T22:08:21.214Z,4.80
2023-03-18T22:10:50.597Z,4.70
2023-03-18T22:13:23.410Z,4.60
2023-03-18T22:15:54.696Z,4.60
2023-03-18T22:18:23.927Z,4.60
2023-03-18T22:20:51.781Z,4.60
2023-03-18T22:23:28.471Z,4.60
2023-03-18T22:25:57.424Z,4.60
2023-03-18T22:28:28.059Z,4.60
2023-03-18T22:30:55.915Z,4.60
2023-03-18T22:33:32.405Z,4.60
2023-03-18T22:36:00.079Z,4.50
2023-03-18T22:38:29.212Z,4.50
2023-03-18T22:40:57.498Z,4.40
2023-03-18T22:43:29.631Z,4.20
2023-03-18T22:45:58.380Z,4.20
2023-03-18T22:48:26.163Z,4.20
2023-03-18T22:50:53.804Z,4.30
2023-03-18T22:53:25.608Z,4.30
2023-03-18T22:55:55.004Z,4.20
2023-03-18T22:58:28.690Z,4.30
2023-03-18T23:00:56.110Z,4.20
2023-03-18T23:03:28.732Z,3.90
2023-03-18T23:05:57.120Z,3.90
2023-03-18T23:08:25.095Z,3.70
2023-03-18T23:10:53.747Z,3.60
2023-03-18T23:13:27.015Z,3.60
2023-03-18T23:15:54.372Z,3.50
2023-03-18T23:18:23.588Z,3.50
2023-03-18T23:20:51.916Z,3.50
2023-03-18T23:23:21.461Z,3.50
2023-03-18T23:25:50.675Z,3.50
2023-03-18T23:28:19.243Z,3.50
2023-03-18T23:30:52.278Z,3.50
2023-03-18T23:33:20.111Z,3.50
2023-03-18T23:35:48.203Z,3.60
2023-03-18T23:38:16.142Z,3.50
2023-03-18T23:40:43.352Z,3.50
2023-03-18T23:43:11.158Z,3.40
2023-03-18T23:45:39.012Z,3.40
2023-03-18T23:48:07.141Z,3.50
2023-03-18T23:50:34.638Z,3.50
2023-03-18T23:53:02.331Z,3.60
2023-03-18T23:55:36.677Z,3.60
2023-03-18T23:58:04.157Z,3.60
